createdAt,value
2022-09-26T00:00:48.192Z,1011.861267
2022-09-26T00:01:49.170Z,1011.861267
2022-09-26T00:02:45.837Z,1011.837585
2022-09-26T00:03:44.430Z,1011.745911
2022-09-26T00:06:28.027Z,1011.681519
2022-09-26T00:07:08.860Z,1011.768372
2022-09-26T00:08:06.564Z,1011.61554
2022-09-26T00:09:07.504Z,1011.653259
2022-09-26T00:10:09.767Z,1011.655884
2022-09-26T00:11:08.019Z,1011.592468
2022-09-26T00:12:06.380Z,1011.575317
2022-09-26T00:13:05.406Z,1011.605469
2022-09-26T00:14:01.653Z,1011.59259
2022-09-26T00:15:02.095Z,1011.5896
2022-09-26T00:16:13.122Z,1011.565735
2022-09-26T00:17:12.140Z,1011.542053
2022-09-26T00:18:10.142Z,1011.497498
2022-09-26T00:19:14.192Z,1011.378967
2022-09-26T00:20:08.706Z,1011.475464
2022-09-26T00:21:10.516Z,1011.387085
2022-09-26T00:22:05.745Z,1011.41394
2022-09-26T00:23:07.275Z,1011.46759
2022-09-26T00:24:01.495Z,1011.279602
2022-09-26T00:25:12.126Z,1011.287476
2022-09-26T00:26:04.055Z,1011.263855
2022-09-26T00:27:03.156Z,1011.251343
2022-09-26T00:28:00.157Z,1011.233337
2022-09-26T00:28:59.304Z,1011.195435
2022-09-26T00:30:52.288Z,1011.156372
2022-09-26T00:31:51.324Z,1011.132202
2022-09-26T00:32:47.798Z,1011.124573
2022-09-26T00:33:45.298Z,1011.046753
2022-09-26T00:34:01.514Z,1011.127258
2022-09-26T00:35:35.154Z,1011.049011
2022-09-26T00:37:58.793Z,1011.000549
2022-09-26T00:38:46.560Z,1010.982056
2022-09-26T00:40:52.948Z,1010.981445
2022-09-26T00:41:53.027Z,1010.935852
2022-09-26T00:42:49.159Z,1010.886536
2022-09-26T00:43:51.755Z,1010.931274
2022-09-26T00:44:46.330Z,1010.966919
2022-09-26T00:45:45.772Z,1010.965698
2022-09-26T00:46:46.000Z,1010.940186
2022-09-26T00:47:46.434Z,1010.938538
2022-09-26T00:48:46.635Z,1010.905029
2022-09-26T00:50:39.665Z,1010.862366
2022-09-26T00:51:42.233Z,1010.854614
2022-09-26T00:52:36.391Z,1010.892517
2022-09-26T00:53:41.260Z,1010.873474
2022-09-26T00:54:34.860Z,1010.838745
2022-09-26T00:55:33.607Z,1010.819702
2022-09-26T00:56:36.463Z,1010.83075
2022-09-26T00:57:38.733Z,1010.807068
2022-09-26T00:58:40.943Z,1010.81488
2022-09-26T01:00:37.745Z,1010.783752
2022-09-26T01:01:35.828Z,1010.727905
2022-09-26T01:02:34.076Z,1010.714172
2022-09-26T01:03:35.129Z,1010.698425
2022-09-26T01:04:31.586Z,1010.633606
2022-09-26T01:05:37.482Z,1010.688599
2022-09-26T01:06:33.612Z,1010.661743
2022-09-26T01:07:31.610Z,1010.61908
2022-09-26T01:08:25.920Z,1010.592163
2022-09-26T01:09:23.413Z,1010.642761
2022-09-26T01:10:28.063Z,1010.677612
2022-09-26T01:11:19.744Z,1010.608093
2022-09-26T01:12:19.291Z,1010.658508
2022-09-26T01:13:17.839Z,1010.557373
2022-09-26T01:14:16.012Z,1010.641052
2022-09-26T01:15:19.332Z,1010.614197
2022-09-26T01:16:11.119Z,1010.552979
2022-09-26T01:17:12.737Z,1010.533569
2022-09-26T01:18:03.991Z,1010.552979
2022-09-26T01:19:49.228Z,1010.549622
2022-09-26T01:20:33.985Z,1010.53717
2022-09-26T01:21:34.142Z,1010.47998
2022-09-26T01:22:39.543Z,1010.44696
2022-09-26T01:23:34.773Z,1010.469116
2022-09-26T01:24:34.939Z,1010.42334
2022-09-26T01:25:30.603Z,1010.360046
2022-09-26T01:26:31.087Z,1010.325073
2022-09-26T01:27:33.892Z,1010.351929
2022-09-26T01:28:32.892Z,1010.344177
2022-09-26T01:29:28.246Z,1010.367737
2022-09-26T01:30:26.997Z,1010.366333
2022-09-26T01:31:25.022Z,1010.339417
2022-09-26T01:32:28.888Z,1010.320313
2022-09-26T01:33:26.235Z,1010.377197
2022-09-26T01:34:32.651Z,1010.219666
2022-09-26T01:35:31.636Z,1010.181091
2022-09-26T01:36:33.081Z,1010.268555
2022-09-26T01:37:27.620Z,1010.255371
2022-09-26T01:38:30.440Z,1010.167297
2022-09-26T01:40:23.623Z,1010.152832
2022-09-26T01:41:24.000Z,1010.130676
2022-09-26T01:42:24.114Z,1010.113464
2022-09-26T01:43:27.367Z,1010.151367
2022-09-26T01:45:23.821Z,1010.108887
2022-09-26T01:46:24.156Z,1010.116272
2022-09-26T01:47:24.243Z,1010.030945
2022-09-26T01:48:18.603Z,1010.0578
2022-09-26T01:49:20.892Z,1010.105225
2022-09-26T01:50:13.779Z,1010.094299
2022-09-26T01:51:13.451Z,1010.113647
2022-09-26T01:52:08.234Z,1010.113647
2022-09-26T01:53:07.874Z,1010.145142
2022-09-26T01:54:03.889Z,1010.105225
2022-09-26T01:55:05.362Z,1010.086731
2022-09-26T01:55:57.809Z,1010.044128
2022-09-26T01:56:58.381Z,1010.100586
2022-09-26T01:57:54.338Z,1010.08197
2022-09-26T01:59:00.027Z,1010.059937
2022-09-26T02:00:25.517Z,1010.02478
2022-09-26T02:01:08.499Z,1010.04541
2022-09-26T02:02:15.445Z,1010.022034
2022-09-26T02:03:13.345Z,1010.040466
2022-09-26T02:04:13.478Z,1010.055176
2022-09-26T02:05:09.742Z,1009.9599
2022-09-26T02:06:12.526Z,1009.979309
2022-09-26T02:07:06.699Z,1009.981995
2022-09-26T02:08:07.218Z,1010.001465
2022-09-26T02:09:02.614Z,1009.90979
2022-09-26T02:10:58.414Z,1009.920837
2022-09-26T02:12:02.873Z,1009.827026
2022-09-26T02:13:03.531Z,1009.849121
2022-09-26T02:14:02.955Z,1009.887146
2022-09-26T02:15:59.049Z,1009.846497
2022-09-26T02:16:57.046Z,1009.879578
2022-09-26T02:17:57.716Z,1009.79071
2022-09-26T02:18:57.267Z,1009.740479
2022-09-26T02:20:56.591Z,1009.770569
2022-09-26T02:21:54.674Z,1009.754761
2022-09-26T02:22:56.464Z,1009.685242
2022-09-26T02:23:54.483Z,1009.703979
2022-09-26T02:25:52.750Z,1009.628174
2022-09-26T02:26:54.534Z,1009.607544
2022-09-26T02:27:54.613Z,1009.558594
2022-09-26T02:29:00.411Z,1009.620056
2022-09-26T02:29:53.195Z,1009.574463
2022-09-26T02:30:55.047Z,1009.542725
2022-09-26T02:31:54.651Z,1009.553833
2022-09-26T02:32:54.700Z,1009.446533
2022-09-26T02:33:53.777Z,1009.434204
2022-09-26T02:36:37.243Z,1009.359619
2022-09-26T02:37:24.874Z,1009.339111
2022-09-26T02:38:23.595Z,1009.362854
2022-09-26T02:40:31.886Z,1009.283875
2022-09-26T02:41:38.460Z,1009.30896
2022-09-26T02:42:40.605Z,1009.242615
2022-09-26T02:43:42.621Z,1009.302673
2022-09-26T02:45:44.520Z,1009.176758
2022-09-26T02:46:45.446Z,1009.15564
2022-09-26T02:47:47.348Z,1009.179382
2022-09-26T02:48:48.866Z,1009.158447
2022-09-26T02:50:49.913Z,1009.144958
2022-09-26T02:51:51.603Z,1009.109863
2022-09-26T02:52:52.691Z,1009.060974
2022-09-26T02:53:53.761Z,1009.016846
2022-09-26T02:54:52.944Z,1009.072021
2022-09-26T02:55:57.358Z,1009.09375
2022-09-26T02:56:56.359Z,1008.930298
2022-09-26T02:57:58.679Z,1009.023071
2022-09-26T02:59:03.675Z,1008.961914
2022-09-26T02:59:59.032Z,1008.928711
2022-09-26T03:00:59.550Z,1008.886108
2022-09-26T03:02:10.120Z,1008.939941
2022-09-26T03:03:09.260Z,1008.832397
2022-09-26T03:04:13.090Z,1008.756104
2022-09-26T03:06:06.182Z,1008.854309
2022-09-26T03:07:08.217Z,1008.80542
2022-09-26T03:08:06.523Z,1008.789551
2022-09-26T03:09:11.381Z,1008.778564
2022-09-26T03:11:06.266Z,1008.702759
2022-09-26T03:12:52.017Z,1008.69165
2022-09-26T03:13:33.571Z,1008.660156
2022-09-26T03:15:36.640Z,1008.649109
2022-09-26T03:16:37.527Z,1008.655273
2022-09-26T03:17:42.967Z,1008.620667
2022-09-26T03:18:48.439Z,1008.620667
2022-09-26T03:19:50.329Z,1008.593811
2022-09-26T03:20:54.051Z,1008.58905
2022-09-26T03:22:02.779Z,1008.546387
2022-09-26T03:23:04.052Z,1008.492676
2022-09-26T03:24:03.190Z,1008.530518
2022-09-26T03:26:02.373Z,1008.443726
2022-09-26T03:27:05.552Z,1008.423157
2022-09-26T03:28:03.766Z,1008.380493
2022-09-26T03:29:11.271Z,1008.441895
2022-09-26T03:30:08.477Z,1008.39624
2022-09-26T03:31:06.548Z,1008.402649
2022-09-26T03:32:12.515Z,1008.452942
2022-09-26T03:33:12.821Z,1008.326721
2022-09-26T03:34:10.990Z,1008.323608
2022-09-26T03:36:15.345Z,1008.219421
2022-09-26T03:37:15.985Z,1008.208313
2022-09-26T03:38:25.830Z,1008.246216
2022-09-26T03:40:27.322Z,1008.235107
2022-09-26T03:41:31.232Z,1008.203613
2022-09-26T03:42:33.312Z,1008.176697
2022-09-26T03:43:36.143Z,1008.2099
2022-09-26T03:45:35.651Z,1008.161072
2022-09-26T03:46:40.039Z,1008.249207
2022-09-26T03:47:40.082Z,1008.187866
2022-09-26T03:48:34.569Z,1008.168701
2022-09-26T03:49:35.603Z,1008.100891
2022-09-26T03:50:32.121Z,1008.146545
2022-09-26T03:51:36.358Z,1008.053528
2022-09-26T03:52:35.838Z,1008.080383
2022-09-26T03:53:41.184Z,1008.097656
2022-09-26T03:55:37.460Z,1008.021851
2022-09-26T03:56:40.657Z,1008.05658
2022-09-26T03:57:34.646Z,1008.026672
2022-09-26T03:58:42.055Z,1008.026672
2022-09-26T04:00:45.020Z,1007.98877
2022-09-26T04:02:28.785Z,1007.952393
2022-09-26T04:03:11.073Z,1007.912903
2022-09-26T04:04:08.958Z,1007.841797
2022-09-26T04:06:09.648Z,1007.884399
2022-09-26T04:07:08.652Z,1007.898254
2022-09-26T04:08:03.828Z,1007.764404
2022-09-26T04:09:03.165Z,1007.794495
2022-09-26T04:09:57.806Z,1007.743774
2022-09-26T04:10:58.774Z,1007.751831
2022-09-26T04:11:53.971Z,1007.705872
2022-09-26T04:13:01.937Z,1007.736023
2022-09-26T04:14:01.590Z,1007.739136
2022-09-26T04:15:02.577Z,1007.685364
2022-09-26T04:16:02.079Z,1007.702759
2022-09-26T04:17:02.301Z,1007.590637
2022-09-26T04:17:56.819Z,1007.630249
2022-09-26T04:18:58.299Z,1007.55603
2022-09-26T04:19:52.642Z,1007.702759
2022-09-26T04:20:52.383Z,1007.611023
2022-09-26T04:21:46.593Z,1007.606384
2022-09-26T04:22:46.192Z,1007.567017
2022-09-26T04:23:41.711Z,1007.567139
2022-09-26T04:24:43.249Z,1007.464417
2022-09-26T04:25:44.189Z,1007.475464
2022-09-26T04:26:43.659Z,1007.443909
2022-09-26T04:27:38.230Z,1007.505859
2022-09-26T04:28:39.842Z,1007.486389
2022-09-26T04:29:35.491Z,1007.486389
2022-09-26T04:30:37.057Z,1007.47229
2022-09-26T04:31:31.633Z,1007.38916
2022-09-26T04:32:33.758Z,1007.436401
2022-09-26T04:33:31.781Z,1007.385437
2022-09-26T04:35:30.112Z,1007.352234
2022-09-26T04:36:38.031Z,1007.379028
2022-09-26T04:38:21.972Z,1007.405762
2022-09-26T04:39:05.812Z,1007.388428
2022-09-26T04:41:02.134Z,1007.33313
2022-09-26T04:41:58.583Z,1007.277893
2022-09-26T04:43:01.126Z,1007.331665
2022-09-26T04:43:58.458Z,1007.257507
2022-09-26T04:45:04.181Z,1007.198975
2022-09-26T04:46:03.266Z,1007.277893
2022-09-26T04:47:01.959Z,1007.208374
2022-09-26T04:47:58.643Z,1007.178589
2022-09-26T04:49:03.614Z,1007.138916
2022-09-26T04:50:07.347Z,1007.115417
2022-09-26T04:51:06.481Z,1007.087463
2022-09-26T04:52:06.572Z,1007.087463
2022-09-26T04:53:01.576Z,1007.110779
2022-09-26T04:54:00.495Z,1007.110779
2022-09-26T04:54:55.747Z,1007.118469
2022-09-26T04:55:54.684Z,1007.033752
2022-09-26T04:56:52.614Z,1007.047546
2022-09-26T04:57:55.005Z,1007.066956
2022-09-26T04:58:52.169Z,1007.009644
2022-09-26T05:00:48.154Z,1007.004944
2022-09-26T05:01:44.599Z,1007.020691
2022-09-26T05:02:46.700Z,1006.982849
2022-09-26T05:03:41.796Z,1007.057007
2022-09-26T05:05:41.931Z,1006.917969
2022-09-26T05:06:45.804Z,1006.971619
2022-09-26T05:07:38.354Z,1006.894775
2022-09-26T05:08:37.923Z,1006.891113
2022-09-26T05:10:33.130Z,1006.856873
2022-09-26T05:11:28.146Z,1006.870728
2022-09-26T05:12:31.246Z,1006.768066
2022-09-26T05:13:28.559Z,1006.810608
2022-09-26T05:14:31.095Z,1006.733704
2022-09-26T05:15:26.385Z,1006.81427
2022-09-26T05:16:28.724Z,1006.756958
2022-09-26T05:17:21.523Z,1006.687439
2022-09-26T05:18:23.279Z,1006.787354
2022-09-26T05:19:15.295Z,1006.779114
2022-09-26T05:21:19.494Z,1006.687439
2022-09-26T05:22:24.884Z,1006.656006
2022-09-26T05:23:23.365Z,1006.666992
2022-09-26T05:24:19.925Z,1006.677734
2022-09-26T05:25:45.773Z,1006.643494
2022-09-26T05:26:26.469Z,1006.702087
2022-09-26T05:27:25.921Z,1006.653198
2022-09-26T05:28:28.596Z,1006.572693
2022-09-26T05:30:31.432Z,1006.614685
2022-09-26T05:31:31.929Z,1006.603577
2022-09-26T05:32:31.738Z,1006.627686
2022-09-26T05:33:29.273Z,1006.538879
2022-09-26T05:35:27.991Z,1006.567871
2022-09-26T05:36:29.423Z,1006.537476
2022-09-26T05:37:27.482Z,1006.556885
2022-09-26T05:38:35.326Z,1006.526367
2022-09-26T05:39:30.944Z,1006.472717
2022-09-26T05:40:34.031Z,1006.527832
2022-09-26T05:41:32.625Z,1006.42511
2022-09-26T05:42:36.925Z,1006.513733
2022-09-26T05:43:29.587Z,1006.428406
2022-09-26T05:44:35.136Z,1006.460022
2022-09-26T05:45:33.679Z,1006.504211
2022-09-26T05:46:31.788Z,1006.488464
2022-09-26T05:47:32.908Z,1006.477356
2022-09-26T05:48:28.335Z,1006.499512
2022-09-26T05:50:31.517Z,1006.379395
2022-09-26T05:51:42.959Z,1006.398254
2022-09-26T05:52:41.753Z,1006.355713
2022-09-26T05:53:44.608Z,1006.42511
2022-09-26T05:54:44.371Z,1006.37146
2022-09-26T05:55:42.353Z,1006.396851
2022-09-26T05:56:42.724Z,1006.376404
2022-09-26T05:57:38.929Z,1006.335754
2022-09-26T05:58:38.622Z,1006.342163
2022-09-26T06:00:39.414Z,1006.337097
2022-09-26T06:01:32.533Z,1006.310303
2022-09-26T06:02:34.118Z,1006.229736
2022-09-26T06:03:30.868Z,1006.291199
2022-09-26T06:05:27.916Z,1006.266296
2022-09-26T06:06:30.881Z,1006.257996
2022-09-26T06:07:24.417Z,1006.217285
2022-09-26T06:09:07.921Z,1006.259277
2022-09-26T06:10:46.734Z,1006.189514
2022-09-26T06:11:43.305Z,1006.232117
2022-09-26T06:12:43.943Z,1006.157837
2022-09-26T06:13:38.931Z,1006.13446
2022-09-26T06:14:38.060Z,1006.096497
2022-09-26T06:15:33.362Z,1006.115234
2022-09-26T06:16:33.145Z,1006.077393
2022-09-26T06:17:30.601Z,1006.145508
2022-09-26T06:18:28.802Z,1006.074402
2022-09-26T06:20:24.445Z,1006.013062
2022-09-26T06:21:23.578Z,1006.027222
2022-09-26T06:22:23.719Z,1006.09668
2022-09-26T06:23:19.058Z,1005.982788
2022-09-26T06:24:19.015Z,1005.976379
2022-09-26T06:26:16.153Z,1006.053955
2022-09-26T06:27:08.057Z,1005.946411
2022-09-26T06:28:07.701Z,1006.000183
2022-09-26T06:29:02.248Z,1005.930725
2022-09-26T06:31:02.587Z,1005.8927
2022-09-26T06:31:54.668Z,1005.900513
2022-09-26T06:32:54.192Z,1005.908508
2022-09-26T06:33:48.818Z,1005.865906
2022-09-26T06:35:44.378Z,1005.7854
2022-09-26T06:36:46.351Z,1005.758545
2022-09-26T06:37:38.805Z,1005.755127
2022-09-26T06:38:40.992Z,1005.73584
2022-09-26T06:39:33.429Z,1005.710754
2022-09-26T06:40:35.978Z,1005.820984
2022-09-26T06:41:32.142Z,1005.760925
2022-09-26T06:42:34.193Z,1005.760925
2022-09-26T06:43:26.668Z,1005.760925
2022-09-26T06:45:21.057Z,1005.655273
2022-09-26T06:46:20.601Z,1005.742371
2022-09-26T06:47:21.986Z,1005.634949
2022-09-26T06:48:22.421Z,1005.695068
2022-09-26T06:48:24.718Z,1005.695068
2022-09-26T06:48:43.239Z,1005.778381
2022-09-26T06:51:26.273Z,1005.558289
2022-09-26T06:52:05.709Z,1005.486877
2022-09-26T06:53:10.692Z,1005.526306
2022-09-26T06:53:12.873Z,1005.526306
2022-09-26T06:54:04.966Z,1005.518433
2022-09-26T06:55:00.345Z,1005.537354
2022-09-26T06:56:00.302Z,1005.48822
2022-09-26T06:56:56.563Z,1005.382385
2022-09-26T06:57:55.863Z,1005.393433
2022-09-26T06:58:50.592Z,1005.415649
2022-09-26T07:00:46.035Z,1005.317749
2022-09-26T07:01:48.154Z,1005.373352
2022-09-26T07:02:40.695Z,1005.359192
2022-09-26T07:03:45.418Z,1005.406311
2022-09-26T07:03:46.261Z,1005.406311
2022-09-26T07:04:40.403Z,1005.385498
2022-09-26T07:05:35.860Z,1005.342773
2022-09-26T07:06:35.850Z,1005.338196
2022-09-26T07:07:30.336Z,1005.278564
2022-09-26T07:08:57.314Z,1005.322998
2022-09-26T07:09:01.086Z,1005.322998
2022-09-26T07:10:26.503Z,1005.338196
2022-09-26T07:11:38.259Z,1005.286072
2022-09-26T07:11:42.096Z,1005.286072
2022-09-26T07:12:09.912Z,1005.286072
2022-09-26T07:12:20.412Z,1005.317505
2022-09-26T07:13:22.668Z,1005.332642
2022-09-26T07:14:15.293Z,1005.216919
2022-09-26T07:15:15.003Z,1005.263184
2022-09-26T07:16:09.549Z,1005.30127
2022-09-26T07:17:10.377Z,1005.169617
2022-09-26T07:18:05.606Z,1005.234497
2022-09-26T07:19:04.640Z,1005.206604
2022-09-26T07:19:59.081Z,1005.290649
2022-09-26T07:20:58.489Z,1005.24054
2022-09-26T07:21:53.650Z,1005.278564
2022-09-26T07:22:56.059Z,1005.205627
2022-09-26T07:23:48.797Z,1005.159973
2022-09-26T07:25:43.033Z,1005.270569
2022-09-26T07:26:44.905Z,1005.085815
2022-09-26T07:27:39.260Z,1005.213745
2022-09-26T07:28:43.234Z,1005.151978
2022-09-26T07:30:37.992Z,1005.185059
2022-09-26T07:31:19.323Z,1005.135254
2022-09-26T07:32:17.465Z,1005.081604
2022-09-26T07:33:15.988Z,1005.046448
2022-09-26T07:34:14.629Z,1005.018616
2022-09-26T07:34:18.602Z,1005.018616
2022-09-26T07:36:06.112Z,1005.095581
2022-09-26T07:37:05.316Z,1005.015015
2022-09-26T07:37:59.638Z,1004.999084
2022-09-26T07:38:58.907Z,1005.048828
2022-09-26T07:40:00.668Z,1004.952576
2022-09-26T07:40:01.998Z,1004.952576
2022-09-26T07:40:53.589Z,1005.031494
2022-09-26T07:41:48.282Z,1005.001587
2022-09-26T07:43:15.273Z,1004.949707
2022-09-26T07:43:18.029Z,1004.949707
2022-09-26T07:45:41.022Z,1005.039978
2022-09-26T07:46:40.652Z,1004.948181
2022-09-26T07:47:35.787Z,1004.934265
2022-09-26T07:48:37.145Z,1004.875916
2022-09-26T07:49:29.833Z,1004.898132
2022-09-26T07:50:29.491Z,1004.923218
2022-09-26T07:51:28.515Z,1004.952576
2022-09-26T07:52:28.023Z,1004.892639
2022-09-26T07:53:29.735Z,1004.82196
2022-09-26T07:54:22.230Z,1004.848816
2022-09-26T07:55:23.735Z,1004.798218
2022-09-26T07:56:15.662Z,1004.732117
2022-09-26T07:57:13.686Z,1004.794128
2022-09-26T07:58:12.268Z,1004.689514
2022-09-26T07:59:06.551Z,1004.727478
2022-09-26T08:01:03.314Z,1004.762695
2022-09-26T08:01:57.558Z,1004.762695
2022-09-26T08:03:34.840Z,1004.774048
2022-09-26T08:05:34.095Z,1004.619324
2022-09-26T08:06:30.307Z,1004.591919
2022-09-26T08:07:32.506Z,1004.595154
2022-09-26T08:08:25.427Z,1004.643188
2022-09-26T08:09:26.641Z,1004.635925
2022-09-26T08:10:49.554Z,1004.760193
2022-09-26T08:11:30.758Z,1004.683472
2022-09-26T08:12:29.834Z,1004.622009
2022-09-26T08:13:32.052Z,1004.712158
2022-09-26T08:14:27.765Z,1004.584961
2022-09-26T08:15:27.749Z,1004.65271
2022-09-26T08:16:23.932Z,1004.743469
2022-09-26T08:17:23.303Z,1004.653687
2022-09-26T08:18:18.542Z,1004.649048
2022-09-26T08:19:18.384Z,1004.709167
2022-09-26T08:21:14.363Z,1004.684204
2022-09-26T08:22:11.828Z,1004.676514
2022-09-26T08:23:11.736Z,1004.706543
2022-09-26T08:24:06.992Z,1004.687622
2022-09-26T08:26:04.116Z,1004.671753
2022-09-26T08:26:59.440Z,1004.660828
2022-09-26T08:28:01.456Z,1004.576721
2022-09-26T08:28:58.490Z,1004.614746
2022-09-26T08:30:54.335Z,1004.646301
2022-09-26T08:31:56.418Z,1004.65741
2022-09-26T08:32:51.701Z,1004.65741
2022-09-26T08:33:51.488Z,1004.607117
2022-09-26T08:34:47.778Z,1004.646301
2022-09-26T08:35:50.885Z,1004.641602
2022-09-26T08:36:43.467Z,1004.618042
2022-09-26T08:37:45.995Z,1004.641602
2022-09-26T08:38:40.364Z,1004.565613
2022-09-26T08:39:37.308Z,1004.62738
2022-09-26T08:40:36.588Z,1004.638489
2022-09-26T08:41:32.020Z,1004.649597
2022-09-26T08:42:56.326Z,1004.689514
2022-09-26T08:43:36.738Z,1004.629333
2022-09-26T08:45:34.303Z,1004.625977
2022-09-26T08:46:30.062Z,1004.736633
2022-09-26T08:47:27.889Z,1004.625854
2022-09-26T08:48:30.341Z,1004.606995
2022-09-26T08:50:26.217Z,1004.591248
2022-09-26T08:51:26.757Z,1004.563599
2022-09-26T08:51:29.220Z,1004.563599
2022-09-26T08:52:20.082Z,1004.539368
2022-09-26T08:53:17.553Z,1004.574524
2022-09-26T08:54:20.589Z,1004.592224
2022-09-26T08:55:15.967Z,1004.61261
2022-09-26T08:56:18.665Z,1004.617188
2022-09-26T08:57:14.033Z,1004.596741
2022-09-26T08:58:14.057Z,1004.639404
2022-09-26T08:59:14.645Z,1004.532104
2022-09-26T09:01:12.717Z,1004.431702
2022-09-26T09:02:05.908Z,1004.419983
2022-09-26T09:03:08.063Z,1004.440308
2022-09-26T09:04:04.767Z,1004.446777
2022-09-26T09:06:04.460Z,1004.415955
2022-09-26T09:07:06.607Z,1004.37793
2022-09-26T09:07:59.929Z,1004.366272
2022-09-26T09:09:02.436Z,1004.351135
2022-09-26T09:09:57.105Z,1004.390259
2022-09-26T09:12:21.743Z,1004.456116
2022-09-26T09:12:24.842Z,1004.456116
2022-09-26T09:12:32.527Z,1004.35144
2022-09-26T09:13:30.602Z,1004.361938
2022-09-26T09:14:31.067Z,1004.35083
2022-09-26T09:15:26.783Z,1004.3396
2022-09-26T09:16:30.715Z,1004.354248
2022-09-26T09:17:23.531Z,1004.333801
2022-09-26T09:18:23.252Z,1004.318054
2022-09-26T09:19:18.515Z,1004.320007
2022-09-26T09:21:12.946Z,1004.231934
2022-09-26T09:22:12.268Z,1004.180969
2022-09-26T09:23:07.337Z,1004.24585
2022-09-26T09:24:06.414Z,1004.306091
2022-09-26T09:25:00.943Z,1004.233887
2022-09-26T09:27:55.049Z,1004.270569
2022-09-26T09:28:53.679Z,1004.169983
2022-09-26T09:29:49.803Z,1004.14032
2022-09-26T09:30:48.144Z,1004.10968
2022-09-26T09:31:44.375Z,1004.180969
2022-09-26T09:32:43.582Z,1004.200378
2022-09-26T09:33:38.720Z,1004.176453
2022-09-26T09:34:38.160Z,1004.064514
2022-09-26T09:35:33.429Z,1004.097717
2022-09-26T09:36:30.170Z,1004.140381
2022-09-26T09:37:33.732Z,1004.132813
2022-09-26T09:38:27.332Z,1004.070923
2022-09-26T09:39:30.070Z,1004.158386
2022-09-26T09:41:18.958Z,1004.071899
2022-09-26T09:42:18.573Z,1004.016968
2022-09-26T09:43:13.402Z,1004.032654
2022-09-26T09:44:15.364Z,1004.113159
2022-09-26T09:45:07.537Z,1003.88855
2022-09-26T09:46:09.811Z,1003.918823
2022-09-26T09:47:03.816Z,1003.845947
2022-09-26T09:48:27.919Z,1003.904236
2022-09-26T09:49:08.324Z,1003.878906
2022-09-26T09:51:06.519Z,1003.842834
2022-09-26T09:52:02.418Z,1003.811401
2022-09-26T09:53:00.272Z,1003.88916
2022-09-26T09:54:00.373Z,1003.723572
2022-09-26T09:54:55.535Z,1003.789429
2022-09-26T09:55:57.046Z,1003.767334
2022-09-26T09:56:52.405Z,1003.701233
2022-09-26T09:57:50.064Z,1003.6698
2022-09-26T09:58:50.969Z,1003.724792
2022-09-26T10:00:51.506Z,1003.651306
2022-09-26T10:01:44.428Z,1003.604919
2022-09-26T10:02:42.812Z,1003.631836
2022-09-26T10:03:43.969Z,1003.552551
2022-09-26T10:05:42.595Z,1003.507996
2022-09-26T10:06:44.302Z,1003.471497
2022-09-26T10:06:45.944Z,1003.471497
2022-09-26T10:07:39.946Z,1003.484741
2022-09-26T10:08:34.372Z,1003.562561
2022-09-26T10:09:39.193Z,1003.37085
2022-09-26T10:10:32.845Z,1003.411438
2022-09-26T10:11:29.138Z,1003.418091
2022-09-26T10:12:27.251Z,1003.437561
2022-09-26T10:13:30.341Z,1003.399597
2022-09-26T10:14:23.740Z,1003.407959
2022-09-26T10:15:26.782Z,1003.402161
2022-09-26T10:16:21.115Z,1003.321716
2022-09-26T10:17:20.950Z,1003.231995
2022-09-26T10:18:24.787Z,1003.271729
2022-09-26T10:18:25.362Z,1003.271729
2022-09-26T10:20:12.541Z,1003.232666
2022-09-26T10:20:54.615Z,1003.119812
2022-09-26T10:21:53.863Z,1003.162354
2022-09-26T10:22:52.847Z,1003.204895
2022-09-26T10:23:54.119Z,1003.013184
2022-09-26T10:25:51.496Z,1003.039246
2022-09-26T10:26:51.122Z,1003.019775
2022-09-26T10:27:48.235Z,1003.039246
2022-09-26T10:28:49.308Z,1002.912354
2022-09-26T10:30:46.816Z,1002.985596
2022-09-26T10:31:43.600Z,1002.903259
2022-09-26T10:32:44.559Z,1002.906982
2022-09-26T10:33:40.911Z,1002.833801
2022-09-26T10:34:45.024Z,1002.757751
2022-09-26T10:35:40.209Z,1002.824463
2022-09-26T10:36:40.508Z,1002.782593
2022-09-26T10:37:37.397Z,1002.820618
2022-09-26T10:38:38.366Z,1002.706604
2022-09-26T10:51:57.882Z,1002.556885
2022-09-26T10:53:03.247Z,1002.585754
2022-09-26T11:28:31.258Z,1001.864685
2022-09-26T11:30:38.248Z,1001.776245
2022-09-26T11:31:34.618Z,1001.7724
2022-09-26T11:32:40.376Z,1001.781677
2022-09-26T11:33:36.094Z,1001.788696
2022-09-26T11:34:41.707Z,1001.784729
2022-09-26T11:35:37.056Z,1001.893799
2022-09-26T11:36:42.104Z,1001.839539
2022-09-26T11:37:40.024Z,1001.795166
2022-09-26T11:38:37.593Z,1001.804504
2022-09-26T11:40:37.424Z,1001.817322
2022-09-26T11:41:40.443Z,1001.839355
2022-09-26T11:42:38.949Z,1001.662476
2022-09-26T11:44:25.250Z,1001.752075
2022-09-26T11:46:02.736Z,1001.687622
2022-09-26T11:46:42.737Z,1001.592529
2022-09-26T11:47:42.672Z,1001.633789
2022-09-26T11:48:37.602Z,1001.699768
2022-09-26T11:49:34.910Z,1001.666443
2022-09-26T11:50:34.757Z,1001.593872
2022-09-26T11:51:29.555Z,1001.524414
2022-09-26T11:52:27.762Z,1001.454834
2022-09-26T11:53:26.818Z,1001.559631
2022-09-26T11:54:21.689Z,1001.544739
2022-09-26T11:56:18.831Z,1001.551575
2022-09-26T11:57:13.649Z,1001.567322
2022-09-26T11:58:12.861Z,1001.532715
2022-09-26T11:59:10.704Z,1001.474365
2022-09-26T12:00:05.587Z,1001.520264
2022-09-26T12:01:03.132Z,1001.558411
2022-09-26T12:02:05.108Z,1001.394043
2022-09-26T12:02:57.651Z,1001.4599
2022-09-26T12:03:59.911Z,1001.386597
2022-09-26T12:04:52.209Z,1001.391052
2022-09-26T12:05:52.286Z,1001.418518
2022-09-26T12:06:47.636Z,1001.384766
2022-09-26T12:07:46.856Z,1001.392517
2022-09-26T12:08:42.118Z,1001.404968
2022-09-26T12:09:44.347Z,1001.390137
2022-09-26T12:10:36.781Z,1001.395142
2022-09-26T12:11:39.056Z,1001.441589
2022-09-26T12:12:31.724Z,1001.283081
2022-09-26T12:13:34.137Z,1001.413818
2022-09-26T12:14:26.696Z,1001.304993
2022-09-26T12:15:29.136Z,1001.363281
2022-09-26T12:16:22.253Z,1001.144653
2022-09-26T12:17:24.546Z,1001.267944
2022-09-26T12:18:17.201Z,1001.27179
2022-09-26T12:19:19.220Z,1001.23822
2022-09-26T12:21:11.114Z,1001.439209
2022-09-26T12:22:10.860Z,1001.356506
2022-09-26T12:23:08.749Z,1001.122925
2022-09-26T12:24:01.174Z,1001.305847
2022-09-26T12:25:46.982Z,1001.167542
2022-09-26T12:26:07.354Z,1001.236938
2022-09-26T12:27:06.047Z,1001.09082
2022-09-26T12:28:39.894Z,1001.106384
2022-09-26T12:29:19.876Z,1001.072083
2022-09-26T12:30:17.906Z,1001.119141
2022-09-26T12:31:19.694Z,1001.082825